sensor_id;sensor_type;location;lat;lon;timestamp;P1;durP1;ratioP1;P2;durP2;ratioP2
60919;SDS011;59039;52.108;19.942;2023-03-04T00:00:47;56.10;;;20.90;;
60919;SDS011;59039;52.108;19.942;2023-03-04T00:03:20;50.50;;;21.40;;
60919;SDS011;59039;52.108;19.942;2023-03-04T00:06:10;48.50;;;20.10;;
60919;SDS011;59039;52.108;19.942;2023-03-04T00:08:35;51.40;;;21.40;;
60919;SDS011;59039;52.108;19.942;2023-03-04T00:16:14;50.10;;;21.30;;
60919;SDS011;59039;52.108;19.942;2023-03-04T00:18:39;39.00;;;17.60;;
60919;SDS011;59039;52.108;19.942;2023-03-04T00:21:05;44.30;;;18.40;;
60919;SDS011;59039;52.108;19.942;2023-03-04T00:26:12;36.60;;;15.00;;
60919;SDS011;59039;52.108;19.942;2023-03-04T00:28:38;30.90;;;12.20;;
60919;SDS011;59039;52.108;19.942;2023-03-04T00:31:07;29.80;;;11.40;;
60919;SDS011;59039;52.108;19.942;2023-03-04T00:33:34;31.60;;;13.30;;
60919;SDS011;59039;52.108;19.942;2023-03-04T00:36:19;33.10;;;14.00;;
60919;SDS011;59039;52.108;19.942;2023-03-04T00:38:47;35.20;;;14.40;;
60919;SDS011;59039;52.108;19.942;2023-03-04T00:41:12;33.40;;;14.50;;
60919;SDS011;59039;52.108;19.942;2023-03-04T00:43:40;36.80;;;16.10;;
60919;SDS011;59039;52.108;19.942;2023-03-04T00:46:06;32.80;;;13.50;;
60919;SDS011;59039;52.108;19.942;2023-03-04T00:48:40;33.40;;;14.00;;
60919;SDS011;59039;52.108;19.942;2023-03-04T00:51:08;27.50;;;11.70;;
60919;SDS011;59039;52.108;19.942;2023-03-04T00:53:37;33.50;;;13.50;;
60919;SDS011;59039;52.108;19.942;2023-03-04T00:56:02;33.40;;;15.90;;
60919;SDS011;59039;52.108;19.942;2023-03-04T00:58:28;35.80;;;13.80;;
60919;SDS011;59039;52.108;19.942;2023-03-04T01:00:53;33.50;;;14.60;;
60919;SDS011;59039;52.108;19.942;2023-03-04T01:03:19;29.20;;;12.60;;
60919;SDS011;59039;52.108;19.942;2023-03-04T01:06:04;32.50;;;12.00;;
60919;SDS011;59039;52.108;19.942;2023-03-04T01:08:30;30.40;;;13.90;;
60919;SDS011;59039;52.108;19.942;2023-03-04T01:10:58;30.10;;;12.90;;
60919;SDS011;59039;52.108;19.942;2023-03-04T01:13:23;34.80;;;14.50;;
60919;SDS011;59039;52.108;19.942;2023-03-04T01:15:49;36.00;;;14.80;;
60919;SDS011;59039;52.108;19.942;2023-03-04T01:18:14;30.70;;;14.30;;
60919;SDS011;59039;52.108;19.942;2023-03-04T01:20:45;31.10;;;13.20;;
60919;SDS011;59039;52.108;19.942;2023-03-04T01:23:10;43.50;;;16.90;;
60919;SDS011;59039;52.108;19.942;2023-03-04T01:25:38;35.50;;;14.40;;
60919;SDS011;59039;52.108;19.942;2023-03-04T01:28:09;31.70;;;14.20;;
60919;SDS011;59039;52.108;19.942;2023-03-04T01:30:37;37.80;;;15.30;;
60919;SDS011;59039;52.108;19.942;2023-03-04T01:33:06;37.50;;;15.10;;
60919;SDS011;59039;52.108;19.942;2023-03-04T01:35:31;33.30;;;14.50;;
60919;SDS011;59039;52.108;19.942;2023-03-04T01:37:57;44.30;;;17.60;;
60919;SDS011;59039;52.108;19.942;2023-03-04T01:40:22;45.30;;;17.70;;
60919;SDS011;59039;52.108;19.942;2023-03-04T01:42:50;39.30;;;16.20;;
60919;SDS011;59039;52.108;19.942;2023-03-04T01:45:17;37.10;;;16.20;;
60919;SDS011;59039;52.108;19.942;2023-03-04T01:47:45;38.30;;;16.30;;
60919;SDS011;59039;52.108;19.942;2023-03-04T01:50:13;43.00;;;18.70;;
60919;SDS011;59039;52.108;19.942;2023-03-04T01:52:45;41.10;;;18.20;;
60919;SDS011;59039;52.108;19.942;2023-03-04T01:55:14;36.20;;;17.50;;
60919;SDS011;59039;52.108;19.942;2023-03-04T01:57:41;44.70;;;19.10;;
60919;SDS011;59039;52.108;19.942;2023-03-04T02:00:13;40.80;;;18.50;;
60919;SDS011;59039;52.108;19.942;2023-03-04T02:02:40;47.30;;;18.40;;
60919;SDS011;59039;52.108;19.942;2023-03-04T02:05:05;43.80;;;19.30;;
60919;SDS011;59039;52.108;19.942;2023-03-04T02:07:31;43.00;;;18.30;;
60919;SDS011;59039;52.108;19.942;2023-03-04T02:09:57;43.00;;;19.10;;
60919;SDS011;59039;52.108;19.942;2023-03-04T02:12:22;40.00;;;18.10;;
60919;SDS011;59039;52.108;19.942;2023-03-04T02:14:48;37.20;;;15.70;;
60919;SDS011;59039;52.108;19.942;2023-03-04T02:17:15;44.10;;;19.00;;
60919;SDS011;59039;52.108;19.942;2023-03-04T02:19:49;47.00;;;17.00;;
60919;SDS011;59039;52.108;19.942;2023-03-04T02:22:18;36.50;;;16.10;;
60919;SDS011;59039;52.108;19.942;2023-03-04T02:24:47;37.10;;;15.60;;
60919;SDS011;59039;52.108;19.942;2023-03-04T02:27:17;41.60;;;17.70;;
60919;SDS011;59039;52.108;19.942;2023-03-04T02:29:44;42.00;;;19.70;;
60919;SDS011;59039;52.108;19.942;2023-03-04T02:32:20;39.70;;;18.00;;
60919;SDS011;59039;52.108;19.942;2023-03-04T02:34:46;35.20;;;17.60;;
60919;SDS011;59039;52.108;19.942;2023-03-04T02:37:14;40.30;;;17.90;;
60919;SDS011;59039;52.108;19.942;2023-03-04T02:39:52;37.70;;;17.30;;
60919;SDS011;59039;52.108;19.942;2023-03-04T02:42:19;37.80;;;17.20;;
60919;SDS011;59039;52.108;19.942;2023-03-04T02:44:45;36.30;;;17.10;;
60919;SDS011;59039;52.108;19.942;2023-03-04T02:47:13;37.60;;;17.00;;
60919;SDS011;59039;52.108;19.942;2023-03-04T02:49:40;32.30;;;14.00;;
60919;SDS011;59039;52.108;19.942;2023-03-04T02:52:15;36.70;;;16.60;;
60919;SDS011;59039;52.108;19.942;2023-03-04T02:54:43;31.70;;;15.90;;
60919;SDS011;59039;52.108;19.942;2023-03-04T02:57:18;33.40;;;14.40;;
60919;SDS011;59039;52.108;19.942;2023-03-04T03:00:06;30.30;;;14.80;;
60919;SDS011;59039;52.108;19.942;2023-03-04T03:02:34;28.60;;;14.60;;
60919;SDS011;59039;52.108;19.942;2023-03-04T03:05:20;28.00;;;12.90;;
60919;SDS011;59039;52.108;19.942;2023-03-04T03:07:52;30.30;;;13.80;;
60919;SDS011;59039;52.108;19.942;2023-03-04T03:10:18;27.80;;;13.10;;
60919;SDS011;59039;52.108;19.942;2023-03-04T03:12:52;26.20;;;12.70;;
60919;SDS011;59039;52.108;19.942;2023-03-04T03:15:21;34.50;;;15.40;;
60919;SDS011;59039;52.108;19.942;2023-03-04T03:17:49;32.50;;;14.70;;
60919;SDS011;59039;52.108;19.942;2023-03-04T03:20:28;33.80;;;13.70;;
60919;SDS011;59039;52.108;19.942;2023-03-04T03:23:02;28.90;;;12.80;;
60919;SDS011;59039;52.108;19.942;2023-03-04T03:25:33;34.90;;;15.20;;
60919;SDS011;59039;52.108;19.942;2023-03-04T03:27:58;30.90;;;14.70;;
60919;SDS011;59039;52.108;19.942;2023-03-04T03:30:27;31.90;;;13.80;;
60919;SDS011;59039;52.108;19.942;2023-03-04T03:32:53;30.60;;;15.20;;
60919;SDS011;59039;52.108;19.942;2023-03-04T03:35:21;35.90;;;14.10;;
60919;SDS011;59039;52.108;19.942;2023-03-04T03:37:54;30.80;;;13.50;;
60919;SDS011;59039;52.108;19.942;2023-03-04T03:40:27;30.20;;;13.00;;
60919;SDS011;59039;52.108;19.942;2023-03-04T03:42:52;28.60;;;12.50;;
60919;SDS011;59039;52.108;19.942;2023-03-04T03:45:38;26.20;;;10.60;;
60919;SDS011;59039;52.108;19.942;2023-03-04T03:48:03;26.90;;;13.20;;
60919;SDS011;59039;52.108;19.942;2023-03-04T03:50:31;29.50;;;13.80;;
60919;SDS011;59039;52.108;19.942;2023-03-04T03:53:06;28.10;;;12.50;;
60919;SDS011;59039;52.108;19.942;2023-03-04T03:55:34;27.30;;;13.30;;
60919;SDS011;59039;52.108;19.942;2023-03-04T03:57:59;29.10;;;13.80;;
60919;SDS011;59039;52.108;19.942;2023-03-04T04:00:27;22.10;;;11.10;;
60919;SDS011;59039;52.108;19.942;2023-03-04T04:02:55;28.20;;;12.80;;
60919;SDS011;59039;52.108;19.942;2023-03-04T04:05:29;25.00;;;11.50;;
60919;SDS011;59039;52.108;19.942;2023-03-04T04:07:55;23.40;;;12.00;;
60919;SDS011;59039;52.108;19.942;2023-03-04T04:10:28;23.00;;;11.50;;
60919;SDS011;59039;52.108;19.942;2023-03-04T04:12:55;21.20;;;10.30;;
60919;SDS011;59039;52.108;19.942;2023-03-04T04:15:21;19.50;;;11.10;;
60919;SDS011;59039;52.108;19.942;2023-03-04T04:17:49;32.40;;;14.30;;
60919;SDS011;59039;52.108;19.942;2023-03-04T04:20:41;22.70;;;11.80;;
60919;SDS011;59039;52.108;19.942;2023-03-04T04:23:06;26.50;;;11.40;;
60919;SDS011;59039;52.108;19.942;2023-03-04T04:25:31;26.70;;;12.80;;
60919;SDS011;59039;52.108;19.942;2023-03-04T04:27:56;28.40;;;13.60;;
60919;SDS011;59039;52.108;19.942;2023-03-04T04:30:25;25.60;;;13.10;;
60919;SDS011;59039;52.108;19.942;2023-03-04T04:32:56;27.60;;;13.60;;
60919;SDS011;59039;52.108;19.942;2023-03-04T04:35:25;25.00;;;12.20;;
60919;SDS011;59039;52.108;19.942;2023-03-04T04:37:50;24.90;;;11.90;;
60919;SDS011;59039;52.108;19.942;2023-03-04T04:40:15;25.20;;;12.10;;
60919;SDS011;59039;52.108;19.942;2023-03-04T04:42:41;28.40;;;13.90;;
60919;SDS011;59039;52.108;19.942;2023-03-04T04:47:39;30.50;;;14.20;;
60919;SDS011;59039;52.108;19.942;2023-03-04T04:50:05;28.50;;;11.30;;
60919;SDS011;59039;52.108;19.942;2023-03-04T04:52:31;35.50;;;14.50;;
60919;SDS011;59039;52.108;19.942;2023-03-04T04:54:56;32.00;;;14.10;;
60919;SDS011;59039;52.108;19.942;2023-03-04T04:57:22;28.90;;;12.70;;
60919;SDS011;59039;52.108;19.942;2023-03-04T04:59:55;30.30;;;13.60;;
60919;SDS011;59039;52.108;19.942;2023-03-04T05:02:23;33.80;;;15.40;;
60919;SDS011;59039;52.108;19.942;2023-03-04T05:05:03;25.60;;;12.70;;
60919;SDS011;59039;52.108;19.942;2023-03-04T05:07:30;31.10;;;14.90;;
60919;SDS011;59039;52.108;19.942;2023-03-04T05:09:56;33.40;;;14.50;;
60919;SDS011;59039;52.108;19.942;2023-03-04T05:12:21;28.00;;;13.40;;
60919;SDS011;59039;52.108;19.942;2023-03-04T05:14:47;25.80;;;13.90;;
60919;SDS011;59039;52.108;19.942;2023-03-04T05:17:33;32.80;;;13.50;;
60919;SDS011;59039;52.108;19.942;2023-03-04T05:20:01;33.80;;;16.70;;
60919;SDS011;59039;52.108;19.942;2023-03-04T05:22:30;30.70;;;14.80;;
60919;SDS011;59039;52.108;19.942;2023-03-04T05:24:58;29.80;;;14.90;;
60919;SDS011;59039;52.108;19.942;2023-03-04T05:27:23;29.30;;;14.30;;
60919;SDS011;59039;52.108;19.942;2023-03-04T05:29:51;29.40;;;14.50;;
60919;SDS011;59039;52.108;19.942;2023-03-04T05:32:17;21.30;;;11.60;;
60919;SDS011;59039;52.108;19.942;2023-03-04T05:34:42;23.60;;;12.80;;
60919;SDS011;59039;52.108;19.942;2023-03-04T05:37:08;29.80;;;14.60;;
60919;SDS011;59039;52.108;19.942;2023-03-04T05:39:33;33.60;;;15.50;;
60919;SDS011;59039;52.108;19.942;2023-03-04T05:41:59;35.50;;;16.50;;
60919;SDS011;59039;52.108;19.942;2023-03-04T05:44:24;33.40;;;16.30;;
60919;SDS011;59039;52.108;19.942;2023-03-04T05:46:50;32.30;;;16.00;;
60919;SDS011;59039;52.108;19.942;2023-03-04T05:49:15;32.30;;;15.10;;
60919;SDS011;59039;52.108;19.942;2023-03-04T05:51:41;33.50;;;15.10;;
60919;SDS011;59039;52.108;19.942;2023-03-04T05:54:06;27.30;;;14.60;;
60919;SDS011;59039;52.108;19.942;2023-03-04T05:56:52;33.30;;;15.10;;
60919;SDS011;59039;52.108;19.942;2023-03-04T05:59:20;27.80;;;14.50;;
60919;SDS011;59039;52.108;19.942;2023-03-04T06:01:49;35.40;;;17.80;;
60919;SDS011;59039;52.108;19.942;2023-03-04T06:04:14;36.70;;;16.10;;
60919;SDS011;59039;52.108;19.942;2023-03-04T06:09:21;36.40;;;16.80;;
60919;SDS011;59039;52.108;19.942;2023-03-04T06:11:46;36.60;;;15.70;;
60919;SDS011;59039;52.108;19.942;2023-03-04T06:14:14;36.00;;;18.30;;
60919;SDS011;59039;52.108;19.942;2023-03-04T06:16:42;34.80;;;16.60;;
60919;SDS011;59039;52.108;19.942;2023-03-04T06:19:08;38.30;;;18.20;;
60919;SDS011;59039;52.108;19.942;2023-03-04T06:21:36;34.60;;;17.10;;
60919;SDS011;59039;52.108;19.942;2023-03-04T06:24:10;36.70;;;17.70;;
60919;SDS011;59039;52.108;19.942;2023-03-04T06:26:35;33.00;;;16.40;;
60919;SDS011;59039;52.108;19.942;2023-03-04T06:29:03;34.00;;;16.10;;
60919;SDS011;59039;52.108;19.942;2023-03-04T06:31:32;40.30;;;16.40;;
60919;SDS011;59039;52.108;19.942;2023-03-04T06:33:58;39.40;;;17.20;;
60919;SDS011;59039;52.108;19.942;2023-03-04T06:36:23;38.50;;;17.90;;
60919;SDS011;59039;52.108;19.942;2023-03-04T06:38:48;35.30;;;16.00;;
60919;SDS011;59039;52.108;19.942;2023-03-04T06:41:14;43.40;;;18.50;;
60919;SDS011;59039;52.108;19.942;2023-03-04T06:43:39;42.00;;;20.00;;
60919;SDS011;59039;52.108;19.942;2023-03-04T06:46:05;43.20;;;19.00;;
60919;SDS011;59039;52.108;19.942;2023-03-04T06:48:32;31.40;;;15.10;;
60919;SDS011;59039;52.108;19.942;2023-03-04T06:50:57;37.10;;;16.60;;
60919;SDS011;59039;52.108;19.942;2023-03-04T06:53:23;49.00;;;23.40;;
60919;SDS011;59039;52.108;19.942;2023-03-04T06:55:48;40.40;;;19.60;;
60919;SDS011;59039;52.108;19.942;2023-03-04T06:58:13;35.60;;;18.40;;
60919;SDS011;59039;52.108;19.942;2023-03-04T07:00:39;33.50;;;18.00;;
60919;SDS011;59039;52.108;19.942;2023-03-04T07:03:10;37.20;;;17.60;;
60919;SDS011;59039;52.108;19.942;2023-03-04T07:05:39;35.40;;;18.20;;
60919;SDS011;59039;52.108;19.942;2023-03-04T07:08:04;38.80;;;17.70;;
60919;SDS011;59039;52.108;19.942;2023-03-04T07:10:49;35.70;;;16.60;;
60919;SDS011;59039;52.108;19.942;2023-03-04T07:13:14;37.80;;;17.30;;
60919;SDS011;59039;52.108;19.942;2023-03-04T07:15:40;30.00;;;16.30;;
60919;SDS011;59039;52.108;19.942;2023-03-04T07:18:05;37.60;;;18.50;;
60919;SDS011;59039;52.108;19.942;2023-03-04T07:20:33;32.50;;;15.80;;
60919;SDS011;59039;52.108;19.942;2023-03-04T07:23:02;32.80;;;15.70;;
60919;SDS011;59039;52.108;19.942;2023-03-04T07:25:27;33.10;;;14.80;;
60919;SDS011;59039;52.108;19.942;2023-03-04T07:27:52;39.90;;;16.70;;
60919;SDS011;59039;52.108;19.942;2023-03-04T07:30:18;30.30;;;16.10;;
60919;SDS011;59039;52.108;19.942;2023-03-04T07:32:46;39.90;;;18.90;;
60919;SDS011;59039;52.108;19.942;2023-03-04T07:35:12;32.80;;;16.50;;
60919;SDS011;59039;52.108;19.942;2023-03-04T07:37:46;38.80;;;18.60;;
60919;SDS011;59039;52.108;19.942;2023-03-04T07:40:12;40.60;;;19.80;;
60919;SDS011;59039;52.108;19.942;2023-03-04T07:42:37;40.60;;;19.60;;
60919;SDS011;59039;52.108;19.942;2023-03-04T07:45:03;40.50;;;19.00;;
60919;SDS011;59039;52.108;19.942;2023-03-04T07:47:30;32.70;;;15.30;;
60919;SDS011;59039;52.108;19.942;2023-03-04T07:49:58;26.90;;;14.50;;
60919;SDS011;59039;52.108;19.942;2023-03-04T07:52:24;30.60;;;14.90;;
60919;SDS011;59039;52.108;19.942;2023-03-04T07:54:49;37.40;;;14.90;;
60919;SDS011;59039;52.108;19.942;2023-03-04T07:57:15;32.00;;;15.00;;
60919;SDS011;59039;52.108;19.942;2023-03-04T07:59:43;36.10;;;15.40;;
60919;SDS011;59039;52.108;19.942;2023-03-04T08:02:09;36.20;;;15.60;;
60919;SDS011;59039;52.108;19.942;2023-03-04T08:04:35;35.50;;;18.20;;
60919;SDS011;59039;52.108;19.942;2023-03-04T08:07:00;37.70;;;16.70;;
60919;SDS011;59039;52.108;19.942;2023-03-04T08:09:26;32.50;;;16.70;;
60919;SDS011;59039;52.108;19.942;2023-03-04T08:11:51;38.40;;;17.80;;
60919;SDS011;59039;52.108;19.942;2023-03-04T08:14:17;40.00;;;18.50;;
60919;SDS011;59039;52.108;19.942;2023-03-04T08:17:02;32.80;;;14.80;;
60919;SDS011;59039;52.108;19.942;2023-03-04T08:19:28;38.20;;;19.40;;
60919;SDS011;59039;52.108;19.942;2023-03-04T08:21:59;35.10;;;17.90;;
60919;SDS011;59039;52.108;19.942;2023-03-04T08:24:27;40.10;;;17.50;;
60919;SDS011;59039;52.108;19.942;2023-03-04T08:26:56;34.70;;;17.30;;
60919;SDS011;59039;52.108;19.942;2023-03-04T08:29:24;36.40;;;16.20;;
60919;SDS011;59039;52.108;19.942;2023-03-04T08:31:53;31.00;;;14.20;;
60919;SDS011;59039;52.108;19.942;2023-03-04T08:34:20;30.80;;;13.90;;
60919;SDS011;59039;52.108;19.942;2023-03-04T08:36:48;36.30;;;15.90;;
60919;SDS011;59039;52.108;19.942;2023-03-04T08:41:46;32.40;;;15.90;;
60919;SDS011;59039;52.108;19.942;2023-03-04T08:44:12;33.10;;;15.30;;
60919;SDS011;59039;52.108;19.942;2023-03-04T08:46:39;30.10;;;13.90;;
60919;SDS011;59039;52.108;19.942;2023-03-04T08:49:14;30.00;;;12.90;;
60919;SDS011;59039;52.108;19.942;2023-03-04T08:51:40;28.80;;;14.10;;
60919;SDS011;59039;52.108;19.942;2023-03-04T08:54:07;41.40;;;15.90;;
60919;SDS011;59039;52.108;19.942;2023-03-04T08:56:33;31.30;;;14.70;;
60919;SDS011;59039;52.108;19.942;2023-03-04T08:58:58;37.40;;;17.40;;
60919;SDS011;59039;52.108;19.942;2023-03-04T09:01:27;33.00;;;15.70;;
60919;SDS011;59039;52.108;19.942;2023-03-04T09:03:53;37.00;;;16.40;;
60919;SDS011;59039;52.108;19.942;2023-03-04T09:06:21;35.90;;;16.10;;
60919;SDS011;59039;52.108;19.942;2023-03-04T09:08:46;35.50;;;15.90;;
60919;SDS011;59039;52.108;19.942;2023-03-04T09:11:33;37.60;;;17.40;;
60919;SDS011;59039;52.108;19.942;2023-03-04T09:14:05;38.60;;;16.90;;
60919;SDS011;59039;52.108;19.942;2023-03-04T09:16:30;37.20;;;16.60;;
60919;SDS011;59039;52.108;19.942;2023-03-04T09:18:56;40.40;;;17.00;;
60919;SDS011;59039;52.108;19.942;2023-03-04T09:21:24;37.60;;;15.00;;
60919;SDS011;59039;52.108;19.942;2023-03-04T09:23:52;38.70;;;15.50;;
60919;SDS011;59039;52.108;19.942;2023-03-04T09:26:21;32.10;;;13.60;;
60919;SDS011;59039;52.108;19.942;2023-03-04T09:28:49;31.20;;;12.90;;
60919;SDS011;59039;52.108;19.942;2023-03-04T09:31:19;30.90;;;13.40;;
60919;SDS011;59039;52.108;19.942;2023-03-04T09:33:45;33.80;;;14.20;;
60919;SDS011;59039;52.108;19.942;2023-03-04T09:36:11;36.20;;;16.20;;
60919;SDS011;59039;52.108;19.942;2023-03-04T09:38:38;43.70;;;19.60;;
60919;SDS011;59039;52.108;19.942;2023-03-04T09:41:05;50.20;;;21.10;;
60919;SDS011;59039;52.108;19.942;2023-03-04T09:43:33;36.70;;;16.00;;
60919;SDS011;59039;52.108;19.942;2023-03-04T09:46:13;36.60;;;14.40;;
60919;SDS011;59039;52.108;19.942;2023-03-04T09:48:49;38.90;;;15.70;;
60919;SDS011;59039;52.108;19.942;2023-03-04T09:53:57;37.20;;;13.80;;
60919;SDS011;59039;52.108;19.942;2023-03-04T09:56:30;34.70;;;13.00;;
60919;SDS011;59039;52.108;19.942;2023-03-04T09:59:07;23.50;;;11.00;;
60919;SDS011;59039;52.108;19.942;2023-03-04T10:01:58;31.80;;;12.00;;
60919;SDS011;59039;52.108;19.942;2023-03-04T10:07:33;31.30;;;12.20;;
60919;SDS011;59039;52.108;19.942;2023-03-04T10:12:56;35.60;;;13.40;;
60919;SDS011;59039;52.108;19.942;2023-03-04T10:20:55;27.00;;;11.40;;
60919;SDS011;59039;52.108;19.942;2023-03-04T10:23:46;29.30;;;12.20;;
60919;SDS011;59039;52.108;19.942;2023-03-04T10:26:15;39.40;;;16.80;;
60919;SDS011;59039;52.108;19.942;2023-03-04T10:28:43;33.50;;;14.00;;
60919;SDS011;59039;52.108;19.942;2023-03-04T10:31:26;37.40;;;13.90;;
60919;SDS011;59039;52.108;19.942;2023-03-04T10:33:56;28.00;;;12.30;;
60919;SDS011;59039;52.108;19.942;2023-03-04T10:41:59;33.30;;;14.50;;
60919;SDS011;59039;52.108;19.942;2023-03-04T10:44:53;48.10;;;18.70;;
60919;SDS011;59039;52.108;19.942;2023-03-04T10:47:28;39.70;;;14.40;;
60919;SDS011;59039;52.108;19.942;2023-03-04T10:50:02;43.20;;;17.00;;
60919;SDS011;59039;52.108;19.942;2023-03-04T10:55:11;32.50;;;13.80;;
60919;SDS011;59039;52.108;19.942;2023-03-04T10:57:45;49.10;;;19.90;;
60919;SDS011;59039;52.108;19.942;2023-03-04T11:02:41;55.20;;;21.40;;
60919;SDS011;59039;52.108;19.942;2023-03-04T11:05:23;47.10;;;17.60;;
60919;SDS011;59039;52.108;19.942;2023-03-04T11:07:52;28.90;;;14.80;;
60919;SDS011;59039;52.108;19.942;2023-03-04T11:10:20;29.50;;;12.40;;
60919;SDS011;59039;52.108;19.942;2023-03-04T11:15:21;31.60;;;14.60;;
60919;SDS011;59039;52.108;19.942;2023-03-04T11:17:49;36.10;;;13.30;;
60919;SDS011;59039;52.108;19.942;2023-03-04T11:20:26;31.40;;;13.40;;
60919;SDS011;59039;52.108;19.942;2023-03-04T11:23:20;29.50;;;13.30;;
60919;SDS011;59039;52.108;19.942;2023-03-04T11:26:08;23.40;;;11.90;;
60919;SDS011;59039;52.108;19.942;2023-03-04T11:28:53;32.50;;;14.40;;
60919;SDS011;59039;52.108;19.942;2023-03-04T11:31:31;30.80;;;14.10;;
60919;SDS011;59039;52.108;19.942;2023-03-04T11:34:06;23.60;;;11.80;;
60919;SDS011;59039;52.108;19.942;2023-03-04T11:39:30;32.20;;;13.40;;
60919;SDS011;59039;52.108;19.942;2023-03-04T11:42:12;24.80;;;10.90;;
60919;SDS011;59039;52.108;19.942;2023-03-04T11:44:50;28.90;;;13.30;;
60919;SDS011;59039;52.108;19.942;2023-03-04T11:50:11;28.10;;;12.20;;
60919;SDS011;59039;52.108;19.942;2023-03-04T11:52:57;34.50;;;13.60;;
60919;SDS011;59039;52.108;19.942;2023-03-04T11:55:39;37.70;;;15.50;;
60919;SDS011;59039;52.108;19.942;2023-03-04T12:01:07;32.20;;;13.10;;
60919;SDS011;59039;52.108;19.942;2023-03-04T12:22:07;25.30;;;11.50;;
60919;SDS011;59039;52.108;19.942;2023-03-04T12:30:19;12.90;;;7.30;;
60919;SDS011;59039;52.108;19.942;2023-03-04T12:36:24;18.30;;;8.80;;
60919;SDS011;59039;52.108;19.942;2023-03-04T12:41:49;19.30;;;9.10;;
60919;SDS011;59039;52.108;19.942;2023-03-04T12:44:25;24.00;;;9.10;;
60919;SDS011;59039;52.108;19.942;2023-03-04T12:49:50;15.20;;;7.70;;
60919;SDS011;59039;52.108;19.942;2023-03-04T12:55:09;20.50;;;9.30;;
60919;SDS011;59039;52.108;19.942;2023-03-04T12:57:39;15.20;;;8.00;;
60919;SDS011;59039;52.108;19.942;2023-03-04T13:03:21;15.90;;;7.40;;
60919;SDS011;59039;52.108;19.942;2023-03-04T13:11:37;8.20;;;3.90;;
60919;SDS011;59039;52.108;19.942;2023-03-04T13:14:05;6.20;;;3.20;;
60919;SDS011;59039;52.108;19.942;2023-03-04T13:25:44;5.50;;;2.50;;
60919;SDS011;59039;52.108;19.942;2023-03-04T13:28:18;3.80;;;1.90;;
60919;SDS011;59039;52.108;19.942;2023-03-04T13:35:49;7.90;;;2.70;;
60919;SDS011;59039;52.108;19.942;2023-03-04T13:43:44;9.40;;;3.80;;
60919;SDS011;59039;52.108;19.942;2023-03-04T13:51:17;6.20;;;3.10;;
60919;SDS011;59039;52.108;19.942;2023-03-04T13:53:53;7.20;;;3.30;;
60919;SDS011;59039;52.108;19.942;2023-03-04T13:56:46;10.30;;;5.00;;
60919;SDS011;59039;52.108;19.942;2023-03-04T13:59:18;9.90;;;4.20;;
60919;SDS011;59039;52.108;19.942;2023-03-04T14:01:49;10.20;;;4.60;;
60919;SDS011;59039;52.108;19.942;2023-03-04T14:04:19;13.50;;;5.20;;
60919;SDS011;59039;52.108;19.942;2023-03-04T14:06:57;12.10;;;4.80;;
60919;SDS011;59039;52.108;19.942;2023-03-04T14:11:56;13.30;;;4.60;;
60919;SDS011;59039;52.108;19.942;2023-03-04T14:14:26;11.90;;;4.00;;
60919;SDS011;59039;52.108;19.942;2023-03-04T14:17:02;6.50;;;3.90;;
60919;SDS011;59039;52.108;19.942;2023-03-04T14:19:30;7.00;;;3.60;;
60919;SDS011;59039;52.108;19.942;2023-03-04T14:21:58;13.00;;;4.80;;
60919;SDS011;59039;52.108;19.942;2023-03-04T14:24:24;7.30;;;4.70;;
60919;SDS011;59039;52.108;19.942;2023-03-04T14:26:49;13.70;;;4.20;;
60919;SDS011;59039;52.108;19.942;2023-03-04T14:29:30;13.80;;;5.20;;
60919;SDS011;59039;52.108;19.942;2023-03-04T14:31:56;11.80;;;4.80;;
60919;SDS011;59039;52.108;19.942;2023-03-04T14:37:02;14.20;;;4.80;;
60919;SDS011;59039;52.108;19.942;2023-03-04T14:39:40;12.30;;;5.40;;
60919;SDS011;59039;52.108;19.942;2023-03-04T14:42:14;13.70;;;7.20;;
60919;SDS011;59039;52.108;19.942;2023-03-04T14:44:45;18.40;;;6.70;;
60919;SDS011;59039;52.108;19.942;2023-03-04T14:49:46;13.90;;;6.40;;
60919;SDS011;59039;52.108;19.942;2023-03-04T14:57:41;17.80;;;7.20;;
60919;SDS011;59039;52.108;19.942;2023-03-04T15:02:53;17.50;;;7.00;;
60919;SDS011;59039;52.108;19.942;2023-03-04T15:07:55;11.10;;;5.90;;
60919;SDS011;59039;52.108;19.942;2023-03-04T15:10:31;14.20;;;6.00;;
60919;SDS011;59039;52.108;19.942;2023-03-04T15:13:01;17.50;;;6.90;;
60919;SDS011;59039;52.108;19.942;2023-03-04T15:15:31;18.40;;;8.40;;
60919;SDS011;59039;52.108;19.942;2023-03-04T15:18:24;15.60;;;7.60;;
60919;SDS011;59039;52.108;19.942;2023-03-04T15:23:45;16.20;;;6.70;;
60919;SDS011;59039;52.108;19.942;2023-03-04T15:26:11;14.70;;;7.10;;
60919;SDS011;59039;52.108;19.942;2023-03-04T15:28:37;17.00;;;7.10;;
60919;SDS011;59039;52.108;19.942;2023-03-04T15:31:05;21.00;;;8.10;;
60919;SDS011;59039;52.108;19.942;2023-03-04T15:33:39;19.10;;;8.30;;
60919;SDS011;59039;52.108;19.942;2023-03-04T15:36:04;14.90;;;7.40;;
60919;SDS011;59039;52.108;19.942;2023-03-04T15:38:32;19.40;;;8.80;;
60919;SDS011;59039;52.108;19.942;2023-03-04T15:41:02;18.80;;;8.30;;
60919;SDS011;59039;52.108;19.942;2023-03-04T15:43:28;18.70;;;9.10;;
60919;SDS011;59039;52.108;19.942;2023-03-04T15:45:53;22.70;;;10.40;;
60919;SDS011;59039;52.108;19.942;2023-03-04T15:48:19;21.30;;;8.00;;
60919;SDS011;59039;52.108;19.942;2023-03-04T15:50:55;18.10;;;8.30;;
60919;SDS011;59039;52.108;19.942;2023-03-04T15:53:32;14.20;;;6.50;;
60919;SDS011;59039;52.108;19.942;2023-03-04T15:56:01;16.60;;;6.10;;
60919;SDS011;59039;52.108;19.942;2023-03-04T15:58:29;11.50;;;5.30;;
60919;SDS011;59039;52.108;19.942;2023-03-04T16:00:55;10.90;;;4.70;;
60919;SDS011;59039;52.108;19.942;2023-03-04T16:03:21;8.50;;;3.70;;
60919;SDS011;59039;52.108;19.942;2023-03-04T16:05:50;8.20;;;3.40;;
60919;SDS011;59039;52.108;19.942;2023-03-04T16:08:17;10.90;;;4.10;;
60919;SDS011;59039;52.108;19.942;2023-03-04T16:10:44;8.20;;;3.40;;
60919;SDS011;59039;52.108;19.942;2023-03-04T16:13:13;5.50;;;2.10;;
60919;SDS011;59039;52.108;19.942;2023-03-04T16:15:44;6.20;;;3.10;;
60919;SDS011;59039;52.108;19.942;2023-03-04T16:18:10;5.40;;;2.30;;
60919;SDS011;59039;52.108;19.942;2023-03-04T16:20:36;5.30;;;2.40;;
60919;SDS011;59039;52.108;19.942;2023-03-04T16:23:04;7.80;;;2.90;;
60919;SDS011;59039;52.108;19.942;2023-03-04T16:25:30;4.70;;;2.30;;
60919;SDS011;59039;52.108;19.942;2023-03-04T16:27:56;5.10;;;2.40;;
60919;SDS011;59039;52.108;19.942;2023-03-04T16:30:22;4.80;;;2.60;;
60919;SDS011;59039;52.108;19.942;2023-03-04T16:32:49;5.40;;;2.70;;
60919;SDS011;59039;52.108;19.942;2023-03-04T16:35:15;11.70;;;2.90;;
60919;SDS011;59039;52.108;19.942;2023-03-04T16:37:42;5.10;;;2.70;;
60919;SDS011;59039;52.108;19.942;2023-03-04T16:40:10;9.30;;;2.90;;
60919;SDS011;59039;52.108;19.942;2023-03-04T16:42:37;13.50;;;5.00;;
60919;SDS011;59039;52.108;19.942;2023-03-04T16:45:03;16.60;;;4.70;;
60919;SDS011;59039;52.108;19.942;2023-03-04T16:47:29;18.10;;;6.70;;
60919;SDS011;59039;52.108;19.942;2023-03-04T16:49:55;19.70;;;6.90;;